sensor_id;sensor_type;location;lat;lon;timestamp;pressure;altitude;pressure_sealevel;temperature;humidity
70976;BME280;58635;51.198;6.010;2024-01-27T00:00:53;103300.47;;;8.57;56.53
70976;BME280;58635;51.198;6.010;2024-01-27T00:03:19;103309.84;;;8.58;56.51
70976;BME280;58635;51.198;6.010;2024-01-27T00:05:44;103305.75;;;8.55;56.73
70976;BME280;58635;51.198;6.010;2024-01-27T00:08:09;103296.47;;;8.53;56.39
70976;BME280;58635;51.198;6.010;2024-01-27T00:10:35;103294.13;;;8.49;56.54
70976;BME280;58635;51.198;6.010;2024-01-27T00:13:00;103299.50;;;8.46;56.32
70976;BME280;58635;51.198;6.010;2024-01-27T00:15:25;103307.50;;;8.43;56.43
70976;BME280;58635;51.198;6.010;2024-01-27T00:17:51;103308.66;;;8.39;56.37
70976;BME280;58635;51.198;6.010;2024-01-27T00:20:16;103312.28;;;8.37;56.55
70976;BME280;58635;51.198;6.010;2024-01-27T00:22:41;103323.66;;;8.34;56.69
70976;BME280;58635;51.198;6.010;2024-01-27T00:25:07;103325.50;;;8.32;56.75
70976;BME280;58635;51.198;6.010;2024-01-27T00:27:32;103327.47;;;8.29;56.84
70976;BME280;58635;51.198;6.010;2024-01-27T00:29:58;103336.28;;;8.26;56.77
70976;BME280;58635;51.198;6.010;2024-01-27T00:32:23;103338.38;;;8.21;57.10
70976;BME280;58635;51.198;6.010;2024-01-27T00:34:48;103348.94;;;8.18;56.85
70976;BME280;58635;51.198;6.010;2024-01-27T00:37:15;103343.03;;;8.16;56.73
70976;BME280;58635;51.198;6.010;2024-01-27T00:39:40;103340.72;;;8.13;56.89
70976;BME280;58635;51.198;6.010;2024-01-27T00:42:06;103331.44;;;8.10;56.85
70976;BME280;58635;51.198;6.010;2024-01-27T00:44:31;103338.47;;;8.08;56.92
70976;BME280;58635;51.198;6.010;2024-01-27T00:46:56;103345.59;;;8.05;56.91
70976;BME280;58635;51.198;6.010;2024-01-27T00:49:22;103344.06;;;8.02;57.16
70976;BME280;58635;51.198;6.010;2024-01-27T00:51:47;103341.63;;;8.01;57.03
70976;BME280;58635;51.198;6.010;2024-01-27T00:54:13;103340.22;;;7.97;56.72
70976;BME280;58635;51.198;6.010;2024-01-27T00:56:38;103345.59;;;7.94;56.97
70976;BME280;58635;51.198;6.010;2024-01-27T00:59:03;103347.56;;;7.90;57.04
70976;BME280;58635;51.198;6.010;2024-01-27T01:01:29;103347.78;;;7.87;57.35
70976;BME280;58635;51.198;6.010;2024-01-27T01:03:54;103353.19;;;7.84;57.21
70976;BME280;58635;51.198;6.010;2024-01-27T01:06:19;103343.81;;;7.83;57.33
70976;BME280;58635;51.198;6.010;2024-01-27T01:08:45;103344.75;;;7.82;57.44
70976;BME280;58635;51.198;6.010;2024-01-27T01:11:10;103349.16;;;7.80;57.32
70976;BME280;58635;51.198;6.010;2024-01-27T01:13:35;103362.97;;;7.79;57.50
70976;BME280;58635;51.198;6.010;2024-01-27T01:16:01;103355.59;;;7.74;57.52
70976;BME280;58635;51.198;6.010;2024-01-27T01:18:28;103348.91;;;7.72;57.42
70976;BME280;58635;51.198;6.010;2024-01-27T01:20:53;103355.94;;;7.70;57.50
70976;BME280;58635;51.198;6.010;2024-01-27T01:23:19;103356.97;;;7.67;57.55
70976;BME280;58635;51.198;6.010;2024-01-27T01:25:44;103358.00;;;7.65;57.68
70976;BME280;58635;51.198;6.010;2024-01-27T01:28:10;103350.63;;;7.60;57.77
70976;BME280;58635;51.198;6.010;2024-01-27T01:30:35;103350.63;;;7.60;57.74
70976;BME280;58635;51.198;6.010;2024-01-27T01:33:01;103353.31;;;7.58;57.87
70976;BME280;58635;51.198;6.010;2024-01-27T01:35:26;103355.06;;;7.58;57.86
70976;BME280;58635;51.198;6.010;2024-01-27T01:37:52;103360.31;;;7.56;57.95
70976;BME280;58635;51.198;6.010;2024-01-27T01:40:17;103357.84;;;7.55;57.88
70976;BME280;58635;51.198;6.010;2024-01-27T01:42:43;103352.69;;;7.55;57.95
70976;BME280;58635;51.198;6.010;2024-01-27T01:45:10;103355.38;;;7.53;57.94
70976;BME280;58635;51.198;6.010;2024-01-27T01:47:37;103360.66;;;7.52;58.13
70976;BME280;58635;51.198;6.010;2024-01-27T01:50:02;103354.78;;;7.50;58.03
70976;BME280;58635;51.198;6.010;2024-01-27T01:52:28;103352.94;;;7.52;57.89
70976;BME280;58635;51.198;6.010;2024-01-27T01:54:54;103358.41;;;7.47;58.33
70976;BME280;58635;51.198;6.010;2024-01-27T01:57:19;103361.06;;;7.46;58.19
70976;BME280;58635;51.198;6.010;2024-01-27T01:59:44;103362.94;;;7.44;58.19
70976;BME280;58635;51.198;6.010;2024-01-27T02:02:10;103363.06;;;7.42;58.04
70976;BME280;58635;51.198;6.010;2024-01-27T02:04:45;103361.53;;;7.40;57.87
70976;BME280;58635;51.198;6.010;2024-01-27T02:07:14;103363.41;;;7.38;58.09
70976;BME280;58635;51.198;6.010;2024-01-27T02:09:39;103361.75;;;7.37;58.02
70976;BME280;58635;51.198;6.010;2024-01-27T02:12:05;103354.34;;;7.32;57.87
70976;BME280;58635;51.198;6.010;2024-01-27T02:14:31;103370.59;;;7.32;57.92
70976;BME280;58635;51.198;6.010;2024-01-27T02:16:56;103368.97;;;7.31;58.04
70976;BME280;58635;51.198;6.010;2024-01-27T02:19:22;103364.88;;;7.29;58.14
70976;BME280;58635;51.198;6.010;2024-01-27T02:21:48;103363.22;;;7.28;58.11
70976;BME280;58635;51.198;6.010;2024-01-27T02:24:13;103365.09;;;7.26;57.99
70976;BME280;58635;51.198;6.010;2024-01-27T02:26:39;103354.28;;;7.21;58.40
70976;BME280;58635;51.198;6.010;2024-01-27T02:29:04;103356.75;;;7.22;58.27
70976;BME280;58635;51.198;6.010;2024-01-27T02:31:30;103351.69;;;7.21;58.15
70976;BME280;58635;51.198;6.010;2024-01-27T02:33:55;103357.78;;;7.20;58.19
70976;BME280;58635;51.198;6.010;2024-01-27T02:36:20;103363.16;;;7.17;58.11
70976;BME280;58635;51.198;6.010;2024-01-27T02:38:46;103370.06;;;7.16;58.34
70976;BME280;58635;51.198;6.010;2024-01-27T02:41:11;103360.09;;;7.12;58.58
70976;BME280;58635;51.198;6.010;2024-01-27T02:43:37;103365.31;;;7.10;58.56
70976;BME280;58635;51.198;6.010;2024-01-27T02:46:06;103370.69;;;7.07;58.56
70976;BME280;58635;51.198;6.010;2024-01-27T02:48:31;103379.44;;;7.04;58.76
70976;BME280;58635;51.198;6.010;2024-01-27T02:50:57;103372.78;;;7.02;58.94
70976;BME280;58635;51.198;6.010;2024-01-27T02:53:22;103380.59;;;7.00;58.84
70976;BME280;58635;51.198;6.010;2024-01-27T02:55:47;103376.38;;;6.99;58.71
70976;BME280;58635;51.198;6.010;2024-01-27T02:58:13;103377.28;;;6.98;58.77
70976;BME280;58635;51.198;6.010;2024-01-27T03:00:38;103373.06;;;6.97;58.44
70976;BME280;58635;51.198;6.010;2024-01-27T03:03:04;103370.59;;;6.96;58.56
70976;BME280;58635;51.198;6.010;2024-01-27T03:05:29;103365.47;;;6.96;58.43
70976;BME280;58635;51.198;6.010;2024-01-27T03:07:54;103367.44;;;6.92;58.69
70976;BME280;58635;51.198;6.010;2024-01-27T03:10:20;103377.00;;;6.90;58.69
70976;BME280;58635;51.198;6.010;2024-01-27T03:12:46;103374.66;;;6.87;58.74
70976;BME280;58635;51.198;6.010;2024-01-27T03:15:11;103369.69;;;6.84;58.85
70976;BME280;58635;51.198;6.010;2024-01-27T03:17:36;103368.16;;;6.82;58.88
70976;BME280;58635;51.198;6.010;2024-01-27T03:20:03;103366.41;;;6.82;58.75
70976;BME280;58635;51.198;6.010;2024-01-27T03:22:28;103375.88;;;6.82;58.79
70976;BME280;58635;51.198;6.010;2024-01-27T03:24:54;103365.00;;;6.78;58.76
70976;BME280;58635;51.198;6.010;2024-01-27T03:27:20;103362.53;;;6.77;58.76
70976;BME280;58635;51.198;6.010;2024-01-27T03:29:45;103372.81;;;6.77;58.55
70976;BME280;58635;51.198;6.010;2024-01-27T03:32:11;103370.34;;;6.75;58.74
70976;BME280;58635;51.198;6.010;2024-01-27T03:34:43;103363.53;;;6.74;58.59
70976;BME280;58635;51.198;6.010;2024-01-27T03:37:09;103365.41;;;6.72;58.79
70976;BME280;58635;51.198;6.010;2024-01-27T03:39:34;103362.00;;;6.71;58.69
70976;BME280;58635;51.198;6.010;2024-01-27T03:42:00;103367.25;;;6.70;58.91
70976;BME280;58635;51.198;6.010;2024-01-27T03:44:25;103358.94;;;6.66;58.64
70976;BME280;58635;51.198;6.010;2024-01-27T03:46:50;103364.06;;;6.66;58.78
70976;BME280;58635;51.198;6.010;2024-01-27T03:49:16;103362.53;;;6.64;58.50
70976;BME280;58635;51.198;6.010;2024-01-27T03:51:41;103364.38;;;6.62;58.53
70976;BME280;58635;51.198;6.010;2024-01-27T03:54:07;103366.22;;;6.60;58.84
70976;BME280;58635;51.198;6.010;2024-01-27T03:56:32;103365.72;;;6.55;59.00
70976;BME280;58635;51.198;6.010;2024-01-27T03:58:57;103373.44;;;6.55;58.63
70976;BME280;58635;51.198;6.010;2024-01-27T04:01:23;103365.84;;;6.53;58.72
70976;BME280;58635;51.198;6.010;2024-01-27T04:03:48;103374.47;;;6.52;58.94
70976;BME280;58635;51.198;6.010;2024-01-27T04:06:13;103379.69;;;6.51;59.36
70976;BME280;58635;51.198;6.010;2024-01-27T04:08:39;103371.97;;;6.51;59.40
70976;BME280;58635;51.198;6.010;2024-01-27T04:11:04;103381.44;;;6.50;59.31
70976;BME280;58635;51.198;6.010;2024-01-27T04:13:30;103391.72;;;6.50;59.45
70976;BME280;58635;51.198;6.010;2024-01-27T04:15:55;103387.41;;;6.51;59.20
70976;BME280;58635;51.198;6.010;2024-01-27T04:18:22;103391.72;;;6.50;59.54
70976;BME280;58635;51.198;6.010;2024-01-27T04:20:47;103397.81;;;6.49;59.32
70976;BME280;58635;51.198;6.010;2024-01-27T04:23:13;103396.88;;;6.50;59.17
70976;BME280;58635;51.198;6.010;2024-01-27T04:25:39;103403.88;;;6.48;59.13
70976;BME280;58635;51.198;6.010;2024-01-27T04:28:04;103406.53;;;6.47;58.79
70976;BME280;58635;51.198;6.010;2024-01-27T04:30:29;103405.00;;;6.44;59.00
70976;BME280;58635;51.198;6.010;2024-01-27T04:32:55;103400.91;;;6.41;59.02
70976;BME280;58635;51.198;6.010;2024-01-27T04:35:20;103400.25;;;6.38;58.93
70976;BME280;58635;51.198;6.010;2024-01-27T04:37:46;103405.50;;;6.36;59.00
70976;BME280;58635;51.198;6.010;2024-01-27T04:40:11;103396.25;;;6.34;58.86
70976;BME280;58635;51.198;6.010;2024-01-27T04:42:38;103391.31;;;6.31;58.49
70976;BME280;58635;51.198;6.010;2024-01-27T04:45:04;103403.47;;;6.29;58.63
70976;BME280;58635;51.198;6.010;2024-01-27T04:47:30;103390.78;;;6.26;58.84
70976;BME280;58635;51.198;6.010;2024-01-27T04:49:56;103388.44;;;6.23;58.46
70976;BME280;58635;51.198;6.010;2024-01-27T04:52:22;103392.03;;;6.20;58.82
70976;BME280;58635;51.198;6.010;2024-01-27T04:54:48;103390.38;;;6.19;58.75
70976;BME280;58635;51.198;6.010;2024-01-27T04:57:13;103392.22;;;6.17;58.57
70976;BME280;58635;51.198;6.010;2024-01-27T04:59:38;103394.16;;;6.13;58.71
70976;BME280;58635;51.198;6.010;2024-01-27T05:02:04;103387.38;;;6.12;58.76
70976;BME280;58635;51.198;6.010;2024-01-27T05:04:29;103380.69;;;6.10;58.86
70976;BME280;58635;51.198;6.010;2024-01-27T05:06:55;103385.00;;;6.09;58.54
70976;BME280;58635;51.198;6.010;2024-01-27T05:09:20;103387.69;;;6.08;58.95
70976;BME280;58635;51.198;6.010;2024-01-27T05:11:45;103384.41;;;6.06;59.06
70976;BME280;58635;51.198;6.010;2024-01-27T05:14:11;103393.97;;;6.04;59.29
70976;BME280;58635;51.198;6.010;2024-01-27T05:16:36;103396.59;;;6.02;59.22
70976;BME280;58635;51.198;6.010;2024-01-27T05:19:02;103390.75;;;6.00;58.85
70976;BME280;58635;51.198;6.010;2024-01-27T05:21:27;103387.34;;;6.00;59.27
70976;BME280;58635;51.198;6.010;2024-01-27T05:23:52;103378.81;;;5.99;58.99
70976;BME280;58635;51.198;6.010;2024-01-27T05:26:18;103378.09;;;5.97;59.45
70976;BME280;58635;51.198;6.010;2024-01-27T05:28:43;103377.28;;;5.97;59.20
70976;BME280;58635;51.198;6.010;2024-01-27T05:31:09;103368.13;;;5.93;59.47
70976;BME280;58635;51.198;6.010;2024-01-27T05:33:38;103367.13;;;5.95;59.57
70976;BME280;58635;51.198;6.010;2024-01-27T05:36:06;103380.06;;;5.94;59.51
70976;BME280;58635;51.198;6.010;2024-01-27T05:38:32;103377.59;;;5.92;59.28
70976;BME280;58635;51.198;6.010;2024-01-27T05:41:01;103385.09;;;5.95;59.80
70976;BME280;58635;51.198;6.010;2024-01-27T05:43:26;103380.69;;;5.97;59.62
70976;BME280;58635;51.198;6.010;2024-01-27T05:45:52;103376.47;;;5.96;59.63
70976;BME280;58635;51.198;6.010;2024-01-27T05:48:17;103375.53;;;5.97;59.71
70976;BME280;58635;51.198;6.010;2024-01-27T05:50:43;103383.13;;;5.99;59.92
70976;BME280;58635;51.198;6.010;2024-01-27T05:53:09;103378.81;;;5.99;60.07
70976;BME280;58635;51.198;6.010;2024-01-27T05:55:34;103380.47;;;6.00;59.74
70976;BME280;58635;51.198;6.010;2024-01-27T05:57:59;103381.28;;;6.01;59.91
70976;BME280;58635;51.198;6.010;2024-01-27T06:00:25;103385.59;;;6.00;59.96
70976;BME280;58635;51.198;6.010;2024-01-27T06:02:50;103383.03;;;6.00;59.73
70976;BME280;58635;51.198;6.010;2024-01-27T06:05:16;103387.34;;;6.00;59.49
70976;BME280;58635;51.198;6.010;2024-01-27T06:07:42;103394.34;;;5.98;59.50
70976;BME280;58635;51.198;6.010;2024-01-27T06:10:10;103401.22;;;5.97;59.52
70976;BME280;58635;51.198;6.010;2024-01-27T06:12:37;103395.38;;;5.95;59.66
70976;BME280;58635;51.198;6.010;2024-01-27T06:15:03;103391.16;;;5.94;59.33
70976;BME280;58635;51.198;6.010;2024-01-27T06:17:28;103394.72;;;5.92;59.34
70976;BME280;58635;51.198;6.010;2024-01-27T06:19:54;103393.97;;;5.90;59.37
70976;BME280;58635;51.198;6.010;2024-01-27T06:22:19;103403.53;;;5.87;59.66
70976;BME280;58635;51.198;6.010;2024-01-27T06:24:44;103409.69;;;5.85;59.13
70976;BME280;58635;51.198;6.010;2024-01-27T06:27:10;103406.41;;;5.83;59.41
70976;BME280;58635;51.198;6.010;2024-01-27T06:29:36;103407.50;;;5.79;59.38
70976;BME280;58635;51.198;6.010;2024-01-27T06:32:01;103417.16;;;5.75;59.67
70976;BME280;58635;51.198;6.010;2024-01-27T06:34:27;103410.47;;;5.73;59.81
70976;BME280;58635;51.198;6.010;2024-01-27T06:36:52;103414.78;;;5.72;59.60
70976;BME280;58635;51.198;6.010;2024-01-27T06:39:17;103402.97;;;5.70;59.67
70976;BME280;58635;51.198;6.010;2024-01-27T06:41:43;103405.59;;;5.68;59.38
70976;BME280;58635;51.198;6.010;2024-01-27T06:44:08;103405.59;;;5.68;59.17
70976;BME280;58635;51.198;6.010;2024-01-27T06:46:33;103403.34;;;5.64;59.95
70976;BME280;58635;51.198;6.010;2024-01-27T06:48:59;103395.00;;;5.60;59.92
70976;BME280;58635;51.198;6.010;2024-01-27T06:51:24;103404.47;;;5.60;59.83
70976;BME280;58635;51.198;6.010;2024-01-27T06:53:49;103399.44;;;5.58;59.79
70976;BME280;58635;51.198;6.010;2024-01-27T06:56:15;103401.16;;;5.57;59.88
70976;BME280;58635;51.198;6.010;2024-01-27T06:58:41;103399.44;;;5.58;59.82
70976;BME280;58635;51.198;6.010;2024-01-27T07:01:07;103399.53;;;5.56;59.77
70976;BME280;58635;51.198;6.010;2024-01-27T07:03:32;103398.69;;;5.56;59.75
70976;BME280;58635;51.198;6.010;2024-01-27T07:05:58;103399.53;;;5.56;60.02
70976;BME280;58635;51.198;6.010;2024-01-27T07:08:26;103386.69;;;5.56;60.15
70976;BME280;58635;51.198;6.010;2024-01-27T07:10:52;103403.81;;;5.56;59.58
70976;BME280;58635;51.198;6.010;2024-01-27T07:13:17;103402.00;;;5.58;60.08
70976;BME280;58635;51.198;6.010;2024-01-27T07:15:42;103409.88;;;5.55;59.71
70976;BME280;58635;51.198;6.010;2024-01-27T07:18:08;103406.47;;;5.54;59.86
70976;BME280;58635;51.198;6.010;2024-01-27T07:20:34;103406.88;;;5.48;59.68
70976;BME280;58635;51.198;6.010;2024-01-27T07:23:02;103419.50;;;5.51;59.94
70976;BME280;58635;51.198;6.010;2024-01-27T07:25:28;103419.50;;;5.51;59.78
70976;BME280;58635;51.198;6.010;2024-01-27T07:27:54;103427.31;;;5.50;59.70
70976;BME280;58635;51.198;6.010;2024-01-27T07:30:20;103424.03;;;5.48;59.78
70976;BME280;58635;51.198;6.010;2024-01-27T07:32:48;103430.06;;;5.47;59.98
70976;BME280;58635;51.198;6.010;2024-01-27T07:35:14;103443.81;;;5.46;59.77
70976;BME280;58635;51.198;6.010;2024-01-27T07:37:40;103439.69;;;5.43;59.67
70976;BME280;58635;51.198;6.010;2024-01-27T07:40:06;103454.09;;;5.46;59.81
70976;BME280;58635;51.198;6.010;2024-01-27T07:42:34;103445.75;;;5.42;59.55
70976;BME280;58635;51.198;6.010;2024-01-27T07:45:01;103441.44;;;5.43;59.65
70976;BME280;58635;51.198;6.010;2024-01-27T07:47:27;103441.31;;;5.44;59.71
70976;BME280;58635;51.198;6.010;2024-01-27T07:49:52;103452.44;;;5.45;59.75
70976;BME280;58635;51.198;6.010;2024-01-27T07:52:19;103451.53;;;5.46;60.21
70976;BME280;58635;51.198;6.010;2024-01-27T07:54:44;103443.06;;;5.44;59.86
70976;BME280;58635;51.198;6.010;2024-01-27T07:57:09;103448.19;;;5.44;60.42
70976;BME280;58635;51.198;6.010;2024-01-27T07:59:37;103446.47;;;5.44;60.07
70976;BME280;58635;51.198;6.010;2024-01-27T08:02:02;103451.53;;;5.46;60.24
70976;BME280;58635;51.198;6.010;2024-01-27T08:04:27;103460.88;;;5.47;60.56
70976;BME280;58635;51.198;6.010;2024-01-27T08:06:53;103465.91;;;5.48;60.31
70976;BME280;58635;51.198;6.010;2024-01-27T08:09:18;103467.47;;;5.51;60.48
70976;BME280;58635;51.198;6.010;2024-01-27T08:11:44;103464.69;;;5.54;60.43
70976;BME280;58635;51.198;6.010;2024-01-27T08:14:10;103465.41;;;5.56;60.21
70976;BME280;58635;51.198;6.010;2024-01-27T08:16:35;103461.97;;;5.57;60.21
70976;BME280;58635;51.198;6.010;2024-01-27T08:19:01;103471.09;;;5.61;60.04
70976;BME280;58635;51.198;6.010;2024-01-27T08:21:26;103455.72;;;5.61;60.50
70976;BME280;58635;51.198;6.010;2024-01-27T08:23:53;103462.28;;;5.65;59.88
70976;BME280;58635;51.198;6.010;2024-01-27T08:26:18;103458.81;;;5.66;60.36
70976;BME280;58635;51.198;6.010;2024-01-27T08:28:48;103461.19;;;5.69;60.66
70976;BME280;58635;51.198;6.010;2024-01-27T08:31:14;103458.53;;;5.71;60.31
70976;BME280;58635;51.198;6.010;2024-01-27T08:33:39;103453.31;;;5.72;60.15
70976;BME280;58635;51.198;6.010;2024-01-27T08:36:05;103465.84;;;5.77;60.28
70976;BME280;58635;51.198;6.010;2024-01-27T08:38:30;103470.78;;;5.80;60.54
70976;BME280;58635;51.198;6.010;2024-01-27T08:40:56;103466.28;;;5.83;60.29
70976;BME280;58635;51.198;6.010;2024-01-27T08:43:21;103457.56;;;5.86;60.26
70976;BME280;58635;51.198;6.010;2024-01-27T08:45:47;103459.94;;;5.89;60.43
70976;BME280;58635;51.198;6.010;2024-01-27T08:48:12;103458.13;;;5.91;60.55
70976;BME280;58635;51.198;6.010;2024-01-27T08:50:38;103456.19;;;5.95;60.22
70976;BME280;58635;51.198;6.010;2024-01-27T08:53:03;103458.47;;;5.99;60.48
70976;BME280;58635;51.198;6.010;2024-01-27T08:55:28;103456.50;;;6.03;60.75
70976;BME280;58635;51.198;6.010;2024-01-27T08:57:55;103447.72;;;6.07;60.40
70976;BME280;58635;51.198;6.010;2024-01-27T09:00:21;103455.09;;;6.11;60.55
70976;BME280;58635;51.198;6.010;2024-01-27T09:02:46;103459.97;;;6.16;60.30
70976;BME280;58635;51.198;6.010;2024-01-27T09:05:12;103461.63;;;6.17;60.54
70976;BME280;58635;51.198;6.010;2024-01-27T09:07:38;103457.00;;;6.22;60.24
70976;BME280;58635;51.198;6.010;2024-01-27T09:10:03;103455.97;;;6.25;60.48
70976;BME280;58635;51.198;6.010;2024-01-27T09:12:29;103460.00;;;6.29;60.48
70976;BME280;58635;51.198;6.010;2024-01-27T09:14:54;103464.94;;;6.32;60.35
70976;BME280;58635;51.198;6.010;2024-01-27T09:17:23;103466.59;;;6.33;60.54
70976;BME280;58635;51.198;6.010;2024-01-27T09:19:48;103465.66;;;6.34;60.72
70976;BME280;58635;51.198;6.010;2024-01-27T09:22:14;103474.91;;;6.36;60.12
70976;BME280;58635;51.198;6.010;2024-01-27T09:24:39;103471.31;;;6.39;60.58
70976;BME280;58635;51.198;6.010;2024-01-27T09:27:05;103462.59;;;6.41;60.65
70976;BME280;58635;51.198;6.010;2024-01-27T09:29:30;103474.31;;;6.45;60.47
70976;BME280;58635;51.198;6.010;2024-01-27T09:31:56;103475.75;;;6.50;60.42
70976;BME280;58635;51.198;6.010;2024-01-27T09:34:21;103474.94;;;6.49;60.65
70976;BME280;58635;51.198;6.010;2024-01-27T09:36:47;103487.50;;;6.54;60.80
70976;BME280;58635;51.198;6.010;2024-01-27T09:39:12;103483.91;;;6.56;60.71
70976;BME280;58635;51.198;6.010;2024-01-27T09:41:38;103481.13;;;6.59;60.72
70976;BME280;58635;51.198;6.010;2024-01-27T09:44:04;103476.59;;;6.63;60.93
70976;BME280;58635;51.198;6.010;2024-01-27T09:46:31;103476.31;;;6.67;60.70
70976;BME280;58635;51.198;6.010;2024-01-27T09:48:57;103470.94;;;6.70;60.59
70976;BME280;58635;51.198;6.010;2024-01-27T09:51:22;103474.25;;;6.72;60.46
70976;BME280;58635;51.198;6.010;2024-01-27T09:53:52;103475.06;;;6.73;60.78
70976;BME280;58635;51.198;6.010;2024-01-27T09:56:17;103486.81;;;6.77;60.84
70976;BME280;58635;51.198;6.010;2024-01-27T09:58:44;103494.44;;;6.79;60.85
70976;BME280;58635;51.198;6.010;2024-01-27T10:01:11;103495.66;;;6.86;60.76
70976;BME280;58635;51.198;6.010;2024-01-27T10:03:40;103498.53;;;6.94;60.67
70976;BME280;58635;51.198;6.010;2024-01-27T10:06:08;103493.00;;;7.00;60.51
70976;BME280;58635;51.198;6.010;2024-01-27T10:08:34;103488.47;;;7.03;60.54
70976;BME280;58635;51.198;6.010;2024-01-27T10:11:08;103494.00;;;7.10;60.70
70976;BME280;58635;51.198;6.010;2024-01-27T10:13:34;103487.72;;;7.14;60.64
70976;BME280;58635;51.198;6.010;2024-01-27T10:16:04;103495.94;;;7.19;60.48
70976;BME280;58635;51.198;6.010;2024-01-27T10:18:31;103496.59;;;7.23;60.55
70976;BME280;58635;51.198;6.010;2024-01-27T10:20:56;103496.38;;;7.26;60.49
70976;BME280;58635;51.198;6.010;2024-01-27T10:23:22;103505.31;;;7.33;60.53
70976;BME280;58635;51.198;6.010;2024-01-27T10:25:48;103506.66;;;7.39;60.36
70976;BME280;58635;51.198;6.010;2024-01-27T10:28:14;103496.13;;;7.42;60.46
70976;BME280;58635;51.198;6.010;2024-01-27T10:30:39;103498.41;;;7.46;60.24
70976;BME280;58635;51.198;6.010;2024-01-27T10:33:07;103494.78;;;7.49;60.16
70976;BME280;58635;51.198;6.010;2024-01-27T10:35:33;103492.09;;;7.50;60.32
70976;BME280;58635;51.198;6.010;2024-01-27T10:37:58;103495.28;;;7.54;60.14
70976;BME280;58635;51.198;6.010;2024-01-27T10:40:24;103494.88;;;7.60;60.14
70976;BME280;58635;51.198;6.010;2024-01-27T10:43:03;103494.63;;;7.63;60.10
70976;BME280;58635;51.198;6.010;2024-01-27T10:45:34;103484.81;;;7.68;59.86
70976;BME280;58635;51.198;6.010;2024-01-27T10:48:02;103488.03;;;7.72;59.90
70976;BME280;58635;51.198;6.010;2024-01-27T10:50:28;103482.66;;;7.75;59.78
70976;BME280;58635;51.198;6.010;2024-01-27T10:52:57;103490.97;;;7.78;59.69
70976;BME280;58635;51.198;6.010;2024-01-27T10:55:23;103488.28;;;7.80;59.66
70976;BME280;58635;51.198;6.010;2024-01-27T10:57:50;103498.28;;;7.84;59.55
70976;BME280;58635;51.198;6.010;2024-01-27T11:00:17;103495.59;;;7.86;59.56
70976;BME280;58635;51.198;6.010;2024-01-27T11:02:44;103497.03;;;7.90;59.30
70976;BME280;58635;51.198;6.010;2024-01-27T11:05:10;103501.03;;;7.94;59.41
70976;BME280;58635;51.198;6.010;2024-01-27T11:07:37;103494.84;;;7.97;59.26
70976;BME280;58635;51.198;6.010;2024-01-27T11:10:04;103498.00;;;8.00;59.17
70976;BME280;58635;51.198;6.010;2024-01-27T11:12:31;103499.53;;;8.03;59.09
70976;BME280;58635;51.198;6.010;2024-01-27T11:14:57;103507.78;;;8.08;59.04
70976;BME280;58635;51.198;6.010;2024-01-27T11:17:26;103504.03;;;8.12;59.00
70976;BME280;58635;51.198;6.010;2024-01-27T11:19:53;103500.41;;;8.14;58.96
70976;BME280;58635;51.198;6.010;2024-01-27T11:22:28;103495.97;;;8.16;59.04
70976;BME280;58635;51.198;6.010;2024-01-27T11:25:08;103502.56;;;8.20;58.84
70976;BME280;58635;51.198;6.010;2024-01-27T11:27:34;103495.53;;;8.23;58.99
70976;BME280;58635;51.198;6.010;2024-01-27T11:30:00;103494.25;;;8.28;58.68
70976;BME280;58635;51.198;6.010;2024-01-27T11:32:26;103494.06;;;8.31;58.63
70976;BME280;58635;51.198;6.010;2024-01-27T11:34:52;103485.19;;;8.35;58.50
70976;BME280;58635;51.198;6.010;2024-01-27T11:37:17;103488.34;;;8.39;58.50
70976;BME280;58635;51.198;6.010;2024-01-27T11:39:45;103486.50;;;8.41;58.43
70976;BME280;58635;51.198;6.010;2024-01-27T11:42:12;103490.25;;;8.48;58.15
70976;BME280;58635;51.198;6.010;2024-01-27T11:44:39;103483.09;;;8.52;58.03
70976;BME280;58635;51.198;6.010;2024-01-27T11:47:08;103482.91;;;8.55;58.16
70976;BME280;58635;51.198;6.010;2024-01-27T11:49:38;103490.75;;;8.53;58.01
70976;BME280;58635;51.198;6.010;2024-01-27T11:52:06;103484.31;;;8.59;57.90
70976;BME280;58635;51.198;6.010;2024-01-27T11:54:31;103476.13;;;8.65;57.96
70976;BME280;58635;51.198;6.010;2024-01-27T11:56:57;103473.19;;;8.69;57.59
70976;BME280;58635;51.198;6.010;2024-01-27T11:59:22;103472.94;;;8.72;57.60
70976;BME280;58635;51.198;6.010;2024-01-27T12:01:48;103469.22;;;8.76;57.59
70976;BME280;58635;51.198;6.010;2024-01-27T12:04:14;103469.81;;;8.80;57.60
70976;BME280;58635;51.198;6.010;2024-01-27T12:06:40;103472.72;;;8.87;57.38
70976;BME280;58635;51.198;6.010;2024-01-27T12:09:06;103462.91;;;8.92;57.05
70976;BME280;58635;51.198;6.010;2024-01-27T12:11:38;103463.34;;;8.97;56.95
70976;BME280;58635;51.198;6.010;2024-01-27T12:14:03;103460.44;;;9.01;56.93
70976;BME280;58635;51.198;6.010;2024-01-27T12:16:28;103453.28;;;9.05;56.88
70976;BME280;58635;51.198;6.010;2024-01-27T12:18:54;103451.97;;;9.11;56.76
70976;BME280;58635;51.198;6.010;2024-01-27T12:21:19;103453.16;;;9.18;56.63
70976;BME280;58635;51.198;6.010;2024-01-27T12:23:55;103448.44;;;9.23;56.66
70976;BME280;58635;51.198;6.010;2024-01-27T12:26:28;103441.03;;;9.29;56.58
70976;BME280;58635;51.198;6.010;2024-01-27T12:28:55;103449.16;;;9.36;56.48
70976;BME280;58635;51.198;6.010;2024-01-27T12:31:24;103444.44;;;9.41;56.14
70976;BME280;58635;51.198;6.010;2024-01-27T12:33:54;103445.81;;;9.45;55.86
70976;BME280;58635;51.198;6.010;2024-01-27T12:36:20;103436.91;;;9.49;55.94
70976;BME280;58635;51.198;6.010;2024-01-27T12:38:57;103435.59;;;9.55;55.71
70976;BME280;58635;51.198;6.010;2024-01-27T12:41:27;103445.31;;;9.62;55.74
70976;BME280;58635;51.198;6.010;2024-01-27T12:43:53;103437.19;;;9.67;55.51
70976;BME280;58635;51.198;6.010;2024-01-27T12:46:19;103441.19;;;9.71;55.38
70976;BME280;58635;51.198;6.010;2024-01-27T12:48:45;103445.88;;;9.77;55.33
70976;BME280;58635;51.198;6.010;2024-01-27T12:51:10;103444.31;;;9.86;55.44
70976;BME280;58635;51.198;6.010;2024-01-27T12:53:38;103440.19;;;9.94;55.57